Rapid City, South Dakota
Current Conditions -  °F | °C
As of 8:06 PM on Wednesday 26 Nov 2014 (Local Time) from KRCA Reporting Station
Unknown Precip Unknown Precip  
Wind Chill: 28°   Ceiling: 1400
Heat Index: 28°   Visibility: 10mi
Dew Point: 27°   Wind: 3mph
Humidity: 93%   Direction: 120°ESE
Pressure: 30.26"   Gusts: NA
Location:  44.08°N, 103.23°W
Report Text: KRCA 270306Z AUTO 12003KT 10SM UP OVC014 M02/M03 A3026 RMK AO2 $
Loading
Personal Weather Stations






























Interactive Weather Map New forecast layout! Learn more

10-Day Weather Forecast

Advertisements
Track Severe Weather on mobile